createdAt,value
2019-06-26T00:08:36.514Z,25.80
2019-06-26T00:17:33.161Z,27.00
2019-06-26T00:20:19.259Z,26.40
2019-06-26T00:23:49.869Z,28.40
2019-06-26T00:27:10.260Z,32.00
2019-06-26T00:30:13.832Z,30.40
2019-06-26T00:33:04.895Z,31.80
2019-06-26T00:35:52.655Z,30.60
2019-06-26T00:45:39.619Z,33.00
2019-06-26T00:48:23.055Z,32.00
2019-06-26T00:51:16.893Z,32.20
2019-06-26T00:54:47.136Z,36.00
2019-06-26T00:57:37.485Z,33.40
2019-06-26T01:00:46.971Z,34.20
2019-06-26T01:04:13.525Z,32.20
2019-06-26T01:10:40.272Z,32.20
2019-06-26T01:13:33.836Z,37.60
2019-06-26T01:19:45.394Z,36.80
2019-06-26T01:23:43.255Z,33.80
2019-06-26T01:26:39.960Z,36.80
2019-06-26T01:29:19.414Z,40.00
2019-06-26T01:32:12.457Z,37.20
2019-06-26T01:38:44.103Z,35.20
2019-06-26T01:45:01.803Z,35.80
2019-06-26T01:48:10.397Z,39.00
2019-06-26T01:55:05.044Z,40.60
2019-06-26T01:57:44.987Z,42.20
2019-06-26T02:07:59.597Z,41.00
2019-06-26T02:10:58.489Z,43.00
2019-06-26T02:14:03.497Z,40.20
2019-06-26T02:17:28.858Z,38.50
2019-06-26T02:21:27.821Z,41.00
2019-06-26T02:23:15.265Z,41.80
2019-06-26T02:29:23.588Z,41.80
2019-06-26T02:32:20.124Z,40.60
2019-06-26T02:34:51.993Z,45.40
2019-06-26T02:37:54.056Z,42.40
2019-06-26T02:40:46.495Z,44.60
2019-06-26T02:43:56.282Z,41.80
2019-06-26T02:50:03.290Z,42.40
2019-06-26T02:53:35.828Z,41.60
2019-06-26T02:55:53.163Z,41.80
2019-06-26T02:59:05.480Z,42.40
2019-06-26T03:09:39.370Z,39.00
2019-06-26T03:12:27.893Z,45.60
2019-06-26T03:15:18.987Z,43.40
2019-06-26T03:22:56.070Z,43.60
2019-06-26T03:25:57.046Z,43.60
2019-06-26T03:29:03.623Z,44.80
2019-06-26T03:32:35.942Z,46.80
2019-06-26T03:35:23.002Z,46.80
2019-06-26T03:41:44.658Z,42.00
2019-06-26T03:44:42.567Z,46.60
2019-06-26T03:47:45.826Z,48.20
2019-06-26T04:01:31.392Z,46.20
2019-06-26T04:04:31.595Z,42.40
2019-06-26T04:07:05.424Z,44.60
2019-06-26T04:15:41.527Z,42.40
2019-06-26T04:17:20.729Z,45.80
2019-06-26T04:34:15.279Z,62.80
2019-06-26T04:37:16.300Z,62.20
2019-06-26T05:03:33.821Z,77.40
2019-06-26T05:35:38.229Z,72.80
2019-06-26T11:46:45.815Z,27.00
2019-06-26T13:30:59.280Z,34.20
2019-06-26T13:52:55.187Z,37.00
2019-06-26T15:08:47.706Z,38.60
2019-06-26T19:54:05.163Z,22.20
2019-06-26T21:27:53.184Z,19.00
2019-06-26T21:30:22.578Z,19.20
2019-06-26T21:32:51.992Z,18.40
2019-06-26T21:35:21.513Z,22.00
2019-06-26T21:37:51.186Z,20.00
2019-06-26T21:40:20.702Z,17.80
2019-06-26T21:42:50.225Z,18.80
2019-06-26T21:45:20.715Z,20.00
2019-06-26T21:47:50.192Z,20.00
2019-06-26T21:50:37.066Z,22.20
2019-06-26T21:53:06.815Z,17.40
2019-06-26T21:55:36.263Z,16.60
2019-06-26T21:58:14.813Z,14.20
2019-06-26T22:00:44.785Z,15.40
2019-06-26T22:03:15.138Z,15.00
2019-06-26T22:05:45.238Z,16.00
2019-06-26T22:08:15.529Z,16.20
2019-06-26T22:10:45.706Z,15.60
2019-06-26T22:13:15.818Z,14.80
2019-06-26T22:15:50.090Z,15.40
2019-06-26T22:18:20.431Z,15.00
2019-06-26T22:20:50.517Z,14.00
2019-06-26T22:23:20.696Z,13.20
2019-06-26T22:25:51.546Z,18.20
2019-06-26T22:28:21.764Z,15.00
2019-06-26T22:30:51.769Z,20.20
2019-06-26T22:33:22.092Z,17.00
2019-06-26T22:35:54.533Z,16.80
2019-06-26T22:38:25.713Z,18.80
2019-06-26T22:40:55.832Z,17.40
2019-06-26T22:43:25.841Z,14.00
2019-06-26T22:45:55.764Z,14.00
2019-06-26T22:48:26.124Z,16.80
2019-06-26T22:50:55.878Z,15.00
2019-06-26T22:53:26.223Z,16.80
2019-06-26T22:56:06.948Z,14.40
2019-06-26T22:58:28.000Z,15.60
2019-06-26T23:00:57.915Z,14.00
2019-06-26T23:03:28.104Z,11.20
2019-06-26T23:05:58.226Z,15.00
2019-06-26T23:08:28.177Z,16.40
2019-06-26T23:10:58.546Z,14.00
2019-06-26T23:13:28.510Z,14.80
2019-06-26T23:15:58.818Z,14.40
2019-06-26T23:18:28.652Z,14.00
2019-06-26T23:20:59.147Z,18.40
2019-06-26T23:23:29.252Z,14.00
2019-06-26T23:25:59.403Z,16.40
2019-06-26T23:28:29.512Z,8.00
2019-06-26T23:30:59.087Z,16.40
2019-06-26T23:33:28.661Z,16.40
2019-06-26T23:35:58.271Z,15.00
2019-06-26T23:38:27.774Z,7.80
2019-06-26T23:43:21.513Z,17.00
2019-06-26T23:45:51.073Z,16.00
2019-06-26T23:48:20.685Z,14.60
2019-06-26T23:50:50.722Z,12.80
2019-06-26T23:53:20.397Z,19.80
2019-06-26T23:55:49.983Z,18.40
2019-06-26T23:58:19.589Z,13.40
